Terminal Aerodrome Forecast
Issued by NWS St Louis, MO

Home | Current Version | Previous Version | Text Only | Print | Product List | Glossary On
Versions: 1 2 3 4 5 6 7 8 9 10 11 12 13 14 15 16 17 18 19 20 21 22 23 24
000
FTUS43 KLSX 121455 AAA
TAFSTL
TAF AMD
KSTL 121455Z 1215/1318 32012G20KT P6SM FEW025
     FM130000 29008KT P6SM FEW070
     FM130600 23005KT P6SM FEW080
     FM131200 19005KT P6SM FEW080 WS020/24035KT
     FM131500 24010KT P6SM SCT250=

USA.gov is the U.S. government's official web portal to all federal, state and local government web resources and services.